createdAt,value
2018-10-05T00:01:41.264Z,85.70
2018-10-05T00:04:10.175Z,86.10
2018-10-05T00:06:39.810Z,85.70
2018-10-05T00:09:11.541Z,86.10
2018-10-05T00:11:40.955Z,86.10
2018-10-05T00:14:10.191Z,86.30
2018-10-05T00:16:39.146Z,86.70
2018-10-05T00:19:08.361Z,86.50
2018-10-05T00:21:37.482Z,87.00
2018-10-05T00:24:06.817Z,87.40
2018-10-05T00:26:35.870Z,87.10
2018-10-05T00:29:05.305Z,87.00
2018-10-05T00:31:34.332Z,87.60
2018-10-05T00:34:03.438Z,87.80
2018-10-05T00:36:32.580Z,87.90
2018-10-05T00:39:01.745Z,87.30
2018-10-05T00:41:30.655Z,88.90
2018-10-05T00:43:59.701Z,87.70
2018-10-05T00:46:28.900Z,87.70
2018-10-05T00:48:58.108Z,87.20
2018-10-05T00:51:27.300Z,87.70
2018-10-05T00:53:56.590Z,88.80
2018-10-05T00:56:25.934Z,88.80
2018-10-05T00:58:54.889Z,88.90
2018-10-05T01:01:24.202Z,88.20
2018-10-05T01:03:53.203Z,88.90
2018-10-05T01:06:22.470Z,89.50
2018-10-05T01:08:51.764Z,89.70
2018-10-05T01:11:20.873Z,90.60
2018-10-05T01:13:49.984Z,90.40
2018-10-05T01:16:19.089Z,90.60
2018-10-05T01:18:48.417Z,90.50
2018-10-05T01:21:17.441Z,90.40
2018-10-05T01:23:46.690Z,91.30
2018-10-05T01:26:16.059Z,91.10
2018-10-05T01:28:45.135Z,91.50
2018-10-05T01:31:14.451Z,91.00
2018-10-05T01:33:43.942Z,91.50
2018-10-05T01:36:13.161Z,91.50
2018-10-05T01:38:42.088Z,92.20
2018-10-05T01:41:11.215Z,92.10
2018-10-05T01:43:41.085Z,92.30
2018-10-05T01:46:10.274Z,91.80
2018-10-05T01:48:39.583Z,93.20
2018-10-05T01:51:08.745Z,92.90
2018-10-05T01:53:38.269Z,92.80
2018-10-05T01:56:07.663Z,93.30
2018-10-05T01:58:36.573Z,93.40
2018-10-05T02:01:05.940Z,93.10
2018-10-05T02:03:35.525Z,93.80
2018-10-05T02:06:04.702Z,93.60
2018-10-05T02:08:33.942Z,94.00
2018-10-05T02:11:03.440Z,94.00
2018-10-05T02:13:32.394Z,93.80
2018-10-05T02:16:01.794Z,94.00
2018-10-05T02:18:31.573Z,94.30
2018-10-05T02:21:00.597Z,94.60
2018-10-05T02:23:29.645Z,94.00
2018-10-05T02:25:59.170Z,94.50
2018-10-05T02:28:28.345Z,94.90
2018-10-05T02:30:57.412Z,94.60
2018-10-05T02:33:26.878Z,94.60
2018-10-05T02:35:56.042Z,94.70
2018-10-05T02:38:25.271Z,95.10
2018-10-05T02:40:54.335Z,96.00
2018-10-05T02:43:23.341Z,96.20
2018-10-05T02:45:52.361Z,96.40
2018-10-05T02:48:21.410Z,96.10
2018-10-05T02:50:50.569Z,96.00
2018-10-05T02:53:19.845Z,96.60
2018-10-05T02:55:48.998Z,96.20
2018-10-05T02:58:18.230Z,96.60
2018-10-05T03:00:58.394Z,96.50
2018-10-05T03:03:27.641Z,96.60
2018-10-05T03:05:56.517Z,96.20
2018-10-05T03:08:25.554Z,96.90
2018-10-05T03:10:54.531Z,96.60
2018-10-05T03:13:23.599Z,96.40
2018-10-05T03:15:52.730Z,96.40
2018-10-05T03:18:22.187Z,96.30
2018-10-05T03:20:51.204Z,96.50
2018-10-05T03:23:20.216Z,96.20
2018-10-05T03:25:49.573Z,96.70
2018-10-05T03:28:18.690Z,96.30
2018-10-05T03:30:47.689Z,96.50
2018-10-05T03:33:16.957Z,96.90
2018-10-05T03:35:46.019Z,97.20
2018-10-05T03:38:15.154Z,96.80
2018-10-05T03:40:44.394Z,96.40
2018-10-05T03:43:13.579Z,96.90
2018-10-05T03:45:42.622Z,95.70
2018-10-05T03:48:11.977Z,96.30
2018-10-05T03:50:40.981Z,96.00
2018-10-05T03:53:10.028Z,97.30
2018-10-05T03:55:39.573Z,97.70
2018-10-05T03:58:08.441Z,97.60
2018-10-05T04:00:37.519Z,97.30
2018-10-05T04:03:06.965Z,98.10
2018-10-05T04:05:36.157Z,98.20
2018-10-05T04:08:05.404Z,98.10
2018-10-05T04:10:34.360Z,97.90
2018-10-05T04:13:03.383Z,97.60
2018-10-05T04:15:32.670Z,98.90
2018-10-05T04:18:02.335Z,98.30
2018-10-05T04:20:31.333Z,98.30
2018-10-05T04:23:00.322Z,99.30
2018-10-05T04:25:29.245Z,99.30
2018-10-05T04:27:59.037Z,98.80
2018-10-05T04:30:28.186Z,99.20
2018-10-05T04:32:57.497Z,99.60
2018-10-05T04:35:26.879Z,98.50
2018-10-05T04:37:55.974Z,99.00
2018-10-05T04:40:25.056Z,99.20
2018-10-05T04:42:54.149Z,99.90
2018-10-05T04:45:23.449Z,99.90
2018-10-05T04:47:52.615Z,99.90
2018-10-05T04:50:21.726Z,99.60
2018-10-05T04:52:50.690Z,98.60
2018-10-05T04:55:19.978Z,99.80
2018-10-05T04:57:49.002Z,99.10
2018-10-05T05:00:17.993Z,99.90
2018-10-05T05:02:47.167Z,99.80
2018-10-05T05:05:16.525Z,99.90
2018-10-05T05:07:45.585Z,99.90
2018-10-05T05:10:14.890Z,99.90
2018-10-05T05:12:43.802Z,99.90
2018-10-05T05:15:12.881Z,99.90
2018-10-05T05:17:42.184Z,99.90
2018-10-05T05:20:11.370Z,99.90
2018-10-05T05:22:40.459Z,99.90
2018-10-05T05:25:10.122Z,99.90
2018-10-05T05:27:39.281Z,99.90
2018-10-05T05:30:09.297Z,99.90
2018-10-05T05:32:38.601Z,99.90
2018-10-05T05:35:07.698Z,99.90
2018-10-05T05:37:36.875Z,99.90
2018-10-05T05:40:06.405Z,99.90
2018-10-05T05:42:35.663Z,99.90
2018-10-05T05:45:04.863Z,99.90
2018-10-05T05:47:34.193Z,99.90
2018-10-05T05:50:03.404Z,99.90
2018-10-05T05:52:32.661Z,99.90
2018-10-05T05:55:01.599Z,99.90
2018-10-05T05:57:30.630Z,99.90
2018-10-05T05:59:59.819Z,99.90
2018-10-05T06:02:28.881Z,99.90
2018-10-05T06:04:57.954Z,99.90
2018-10-05T06:07:26.979Z,99.90
2018-10-05T06:09:55.901Z,99.90
2018-10-05T06:12:24.975Z,99.90
2018-10-05T06:14:54.361Z,99.90
2018-10-05T06:17:23.466Z,99.90
2018-10-05T06:19:52.480Z,99.90
2018-10-05T06:22:21.895Z,99.90
2018-10-05T06:24:51.043Z,99.90
2018-10-05T06:27:20.295Z,99.90
2018-10-05T06:29:49.731Z,99.90
2018-10-05T06:32:18.654Z,99.90
2018-10-05T06:34:47.648Z,99.90
2018-10-05T06:37:16.719Z,99.90
2018-10-05T06:39:45.750Z,99.90
2018-10-05T06:42:15.187Z,99.90
2018-10-05T06:44:44.102Z,99.30
2018-10-05T06:47:13.367Z,98.60
2018-10-05T06:49:42.348Z,99.90
2018-10-05T06:52:11.668Z,99.60
2018-10-05T06:54:41.133Z,99.40
2018-10-05T06:57:10.269Z,99.80
2018-10-05T06:59:39.184Z,99.90
2018-10-05T07:02:08.400Z,99.90
2018-10-05T07:04:37.401Z,99.70
2018-10-05T07:07:06.558Z,99.80
2018-10-05T07:09:35.558Z,99.70
2018-10-05T07:12:04.962Z,99.90
2018-10-05T07:14:34.594Z,98.90
2018-10-05T07:17:03.663Z,99.60
2018-10-05T07:19:32.937Z,99.50
2018-10-05T07:22:02.269Z,99.00
2018-10-05T07:24:31.228Z,99.20
2018-10-05T07:27:00.323Z,99.30
2018-10-05T07:29:29.297Z,99.20
2018-10-05T07:31:58.670Z,98.90
2018-10-05T07:34:27.833Z,98.70
2018-10-05T07:36:56.915Z,98.30
2018-10-05T07:39:25.914Z,98.50
2018-10-05T07:41:55.025Z,97.60
2018-10-05T07:44:24.153Z,98.20
2018-10-05T07:46:53.115Z,98.00
2018-10-05T07:49:22.423Z,97.40
2018-10-05T07:51:51.526Z,97.50
2018-10-05T07:54:20.531Z,98.00
2018-10-05T07:56:49.746Z,97.90
2018-10-05T07:59:18.901Z,97.10
2018-10-05T08:01:48.321Z,97.40
2018-10-05T08:04:17.458Z,96.60
2018-10-05T08:06:46.593Z,97.00
2018-10-05T08:09:15.969Z,96.80
2018-10-05T08:11:45.271Z,96.50
2018-10-05T08:14:14.262Z,96.00
2018-10-05T08:16:43.275Z,92.50
2018-10-05T08:19:12.145Z,84.70
2018-10-05T08:21:41.389Z,78.00
2018-10-05T08:24:10.622Z,78.60
2018-10-05T08:26:39.787Z,79.90
2018-10-05T08:29:08.970Z,78.80
2018-10-05T08:31:38.670Z,70.20
2018-10-05T08:34:07.789Z,71.70
2018-10-05T08:36:37.044Z,70.20
2018-10-05T08:39:08.092Z,72.50
2018-10-05T08:41:37.582Z,74.90
2018-10-05T08:44:07.029Z,77.40
2018-10-05T08:46:36.147Z,79.10
2018-10-05T08:49:05.196Z,76.30
2018-10-05T08:51:34.350Z,71.90
2018-10-05T08:54:03.301Z,68.90
2018-10-05T08:56:32.277Z,67.70
2018-10-05T08:59:01.475Z,62.00
2018-10-05T09:01:30.758Z,53.40
2018-10-05T09:04:00.285Z,52.10
2018-10-05T09:06:29.519Z,51.10
2018-10-05T09:08:58.699Z,51.10
2018-10-05T09:11:28.259Z,50.20
2018-10-05T09:13:57.234Z,52.70
2018-10-05T09:16:26.173Z,48.40
2018-10-05T09:18:55.157Z,48.30
2018-10-05T09:21:24.539Z,46.80
2018-10-05T09:23:54.094Z,45.50
2018-10-05T09:26:23.285Z,45.40
2018-10-05T09:28:52.377Z,45.10
2018-10-05T09:31:21.458Z,45.40
2018-10-05T09:33:50.698Z,46.40
2018-10-05T09:36:19.637Z,43.30
2018-10-05T09:38:48.650Z,37.50
2018-10-05T09:41:17.550Z,33.60
2018-10-05T09:43:46.703Z,32.10
2018-10-05T09:46:15.642Z,29.70
2018-10-05T09:48:44.537Z,28.30
2018-10-05T09:51:13.719Z,27.60
2018-10-05T09:53:43.233Z,27.20
2018-10-05T09:56:12.254Z,25.10
2018-10-05T09:58:41.512Z,24.00
2018-10-05T10:01:15.699Z,23.80
2018-10-05T10:03:44.697Z,24.70
2018-10-05T10:06:13.735Z,24.80
2018-10-05T10:08:42.651Z,24.60
2018-10-05T10:11:11.777Z,25.10
2018-10-05T10:13:40.991Z,23.80
2018-10-05T10:16:09.934Z,23.00
2018-10-05T10:18:39.256Z,23.00
2018-10-05T10:21:08.617Z,22.80
2018-10-05T10:23:37.809Z,23.10
2018-10-05T10:26:07.010Z,23.60
2018-10-05T10:28:36.230Z,25.10
2018-10-05T10:31:06.019Z,28.30
2018-10-05T10:33:35.117Z,29.90
2018-10-05T10:36:04.237Z,29.90
2018-10-05T10:38:33.342Z,31.30
2018-10-05T10:41:03.615Z,31.00
2018-10-05T10:43:32.635Z,31.10
2018-10-05T10:46:01.830Z,30.90
2018-10-05T10:48:30.929Z,31.60
2018-10-05T10:51:00.132Z,29.90
2018-10-05T10:53:29.535Z,31.00
2018-10-05T10:55:58.582Z,30.20
2018-10-05T10:58:27.552Z,30.30
2018-10-05T11:00:56.518Z,30.80
2018-10-05T11:03:25.775Z,30.30
2018-10-05T11:05:54.852Z,29.80
2018-10-05T11:08:24.065Z,31.00
2018-10-05T11:10:53.220Z,30.10
2018-10-05T11:13:22.435Z,31.10
2018-10-05T11:15:51.411Z,30.60
2018-10-05T11:18:20.713Z,28.80
2018-10-05T11:20:49.710Z,29.80
2018-10-05T11:23:18.803Z,30.40
2018-10-05T11:25:47.971Z,30.00
2018-10-05T11:28:16.998Z,30.00
2018-10-05T11:30:46.053Z,31.30
2018-10-05T11:33:15.673Z,31.00
2018-10-05T11:35:44.790Z,28.10
2018-10-05T11:38:13.807Z,29.60
2018-10-05T11:40:42.921Z,29.80
2018-10-05T11:43:11.826Z,30.20
2018-10-05T11:45:41.198Z,30.80
2018-10-05T11:48:10.147Z,31.30
2018-10-05T11:50:39.367Z,31.80
2018-10-05T11:53:08.527Z,32.90
2018-10-05T11:55:38.073Z,33.00
2018-10-05T11:58:07.445Z,33.50
2018-10-05T12:00:36.747Z,34.50
2018-10-05T12:03:06.203Z,35.10
2018-10-05T12:05:35.217Z,35.30
2018-10-05T12:08:04.263Z,35.20
2018-10-05T12:10:33.306Z,36.60
2018-10-05T12:13:02.215Z,36.80
2018-10-05T12:15:31.325Z,37.10
2018-10-05T12:18:00.649Z,37.70
2018-10-05T12:20:30.089Z,38.60
2018-10-05T12:22:59.098Z,38.30
2018-10-05T12:25:28.124Z,39.70
2018-10-05T12:27:57.066Z,38.90
2018-10-05T12:30:26.681Z,39.70
2018-10-05T12:32:55.793Z,40.10
2018-10-05T12:35:24.807Z,40.20
2018-10-05T12:37:53.976Z,40.40
2018-10-05T12:40:23.115Z,41.00
2018-10-05T12:42:52.257Z,40.90
2018-10-05T12:45:21.309Z,40.70
2018-10-05T12:47:50.605Z,41.00
2018-10-05T12:50:19.529Z,42.30
2018-10-05T12:52:48.554Z,41.80
2018-10-05T12:55:18.077Z,43.60
2018-10-05T12:57:47.172Z,43.30
2018-10-05T13:00:16.825Z,43.40
2018-10-05T13:02:45.767Z,43.50
2018-10-05T13:05:14.781Z,44.00
2018-10-05T13:07:43.842Z,44.70
2018-10-05T13:10:13.025Z,44.50
2018-10-05T13:12:42.104Z,45.40
2018-10-05T13:15:11.405Z,45.90
2018-10-05T13:17:40.571Z,44.70
2018-10-05T13:20:10.399Z,44.40
2018-10-05T13:22:39.960Z,44.80
2018-10-05T13:25:08.939Z,45.40
2018-10-05T13:27:37.953Z,44.80
2018-10-05T13:30:08.330Z,44.80
2018-10-05T13:32:37.538Z,44.30
2018-10-05T13:35:06.931Z,45.40
2018-10-05T13:37:36.116Z,44.90
2018-10-05T13:40:05.439Z,44.60
2018-10-05T13:42:34.849Z,44.30
2018-10-05T13:45:03.993Z,44.90
2018-10-05T13:47:33.325Z,45.80
2018-10-05T13:50:03.009Z,46.80
2018-10-05T13:52:32.168Z,46.30
2018-10-05T13:55:01.308Z,45.00
2018-10-05T13:57:30.687Z,45.20
2018-10-05T14:00:00.086Z,45.50
2018-10-05T14:02:29.174Z,45.50
2018-10-05T14:04:58.433Z,43.90
2018-10-05T14:07:27.871Z,44.20
2018-10-05T14:09:57.210Z,44.70
2018-10-05T14:12:26.268Z,44.40
2018-10-05T14:14:55.309Z,44.20
2018-10-05T14:17:24.496Z,43.60
2018-10-05T14:19:53.445Z,44.20
2018-10-05T14:22:22.798Z,43.70
2018-10-05T14:24:52.500Z,43.10
2018-10-05T14:27:21.498Z,44.60
2018-10-05T14:29:50.948Z,43.60
2018-10-05T14:32:20.054Z,45.20
2018-10-05T14:34:49.269Z,45.40
2018-10-05T14:37:18.601Z,45.40
2018-10-05T14:39:47.702Z,45.40
2018-10-05T14:42:16.977Z,45.70
2018-10-05T14:44:46.109Z,45.00
2018-10-05T14:47:15.517Z,45.00
2018-10-05T14:49:44.679Z,45.20
2018-10-05T14:52:16.701Z,45.90
2018-10-05T14:54:45.929Z,45.70
2018-10-05T14:57:14.939Z,45.60
2018-10-05T14:59:43.830Z,45.50
2018-10-05T15:02:12.889Z,46.00
2018-10-05T15:04:42.127Z,46.20
2018-10-05T15:07:11.500Z,46.00
2018-10-05T15:09:40.470Z,46.40
2018-10-05T15:12:09.447Z,46.00
2018-10-05T15:14:38.439Z,46.80
2018-10-05T15:17:07.527Z,47.10
2018-10-05T15:19:36.839Z,46.60
2018-10-05T15:22:06.000Z,46.80
2018-10-05T15:24:35.149Z,47.30
2018-10-05T15:27:04.572Z,46.70
2018-10-05T15:29:33.978Z,47.40
2018-10-05T15:32:03.374Z,47.00
2018-10-05T15:34:32.945Z,47.30
2018-10-05T15:37:02.553Z,47.70
2018-10-05T15:39:31.868Z,47.70
2018-10-05T15:42:01.617Z,47.10
2018-10-05T15:44:30.954Z,47.50
2018-10-05T15:47:04.661Z,48.40
2018-10-05T15:49:34.140Z,48.60
2018-10-05T15:52:03.461Z,48.80
2018-10-05T15:54:32.630Z,49.30
2018-10-05T15:57:02.396Z,48.30
2018-10-05T15:59:32.915Z,48.60
2018-10-05T16:02:03.137Z,48.40
2018-10-05T16:04:32.177Z,49.10
2018-10-05T16:07:01.781Z,49.00
2018-10-05T16:09:30.863Z,48.50
2018-10-05T16:12:00.169Z,49.10
2018-10-05T16:14:29.300Z,49.60
2018-10-05T16:17:00.319Z,49.50
2018-10-05T16:19:29.773Z,49.40
2018-10-05T16:21:58.996Z,49.10
2018-10-05T16:24:33.682Z,50.10
2018-10-05T16:27:03.233Z,49.90
2018-10-05T16:29:32.277Z,49.50
2018-10-05T16:32:01.597Z,50.30
2018-10-05T16:34:32.157Z,50.50
2018-10-05T16:37:01.705Z,50.40
2018-10-05T16:39:31.017Z,50.40
2018-10-05T16:42:00.190Z,50.30
2018-10-05T16:44:29.795Z,50.90
2018-10-05T16:46:59.001Z,50.90
2018-10-05T16:49:28.149Z,51.00
2018-10-05T16:51:57.193Z,51.00
2018-10-05T16:54:26.256Z,51.40
2018-10-05T16:56:55.419Z,51.30
2018-10-05T16:59:24.621Z,51.70
2018-10-05T17:01:54.055Z,51.40
2018-10-05T17:04:23.556Z,51.60
2018-10-05T17:06:52.831Z,51.90
2018-10-05T17:09:22.079Z,52.20
2018-10-05T17:11:51.247Z,52.40
2018-10-05T17:14:20.356Z,52.70
2018-10-05T17:16:49.854Z,52.70
2018-10-05T17:19:18.971Z,53.10
2018-10-05T17:21:48.501Z,53.20
2018-10-05T17:24:17.661Z,53.60
2018-10-05T17:26:46.833Z,53.50
2018-10-05T17:29:16.251Z,53.80
2018-10-05T17:31:45.531Z,54.00
2018-10-05T17:34:14.727Z,54.10
2018-10-05T17:36:43.630Z,54.00
2018-10-05T17:39:13.972Z,54.20
2018-10-05T17:41:43.001Z,54.40
2018-10-05T17:44:12.086Z,54.40
2018-10-05T17:46:41.174Z,54.50
2018-10-05T17:49:10.149Z,54.90
2018-10-05T17:51:39.813Z,54.70
2018-10-05T17:54:10.642Z,54.90
2018-10-05T17:56:39.978Z,54.90
2018-10-05T17:59:08.927Z,54.80
2018-10-05T18:01:38.592Z,54.70
2018-10-05T18:04:08.636Z,54.70
2018-10-05T18:06:37.842Z,55.00
2018-10-05T18:09:07.758Z,55.20
2018-10-05T18:11:36.599Z,55.20
2018-10-05T18:14:06.666Z,55.20
2018-10-05T18:16:35.758Z,54.90
2018-10-05T18:19:04.930Z,55.20
2018-10-05T18:21:34.741Z,55.10
2018-10-05T18:24:04.313Z,55.50
2018-10-05T18:26:33.316Z,55.30
2018-10-05T18:29:02.728Z,55.50
2018-10-05T18:31:31.706Z,55.40
2018-10-05T18:34:01.057Z,55.50
2018-10-05T18:36:31.550Z,55.60
2018-10-05T18:39:01.380Z,55.70
2018-10-05T18:41:30.521Z,55.80
2018-10-05T18:43:59.672Z,55.30
2018-10-05T18:46:28.802Z,55.60
2018-10-05T18:48:58.194Z,56.00
2018-10-05T18:51:27.387Z,55.80
2018-10-05T18:53:56.601Z,56.00
2018-10-05T18:56:36.953Z,56.00
2018-10-05T18:59:06.503Z,56.20
2018-10-05T19:01:35.834Z,56.00
2018-10-05T19:04:04.950Z,56.80
2018-10-05T19:06:33.969Z,56.40
2018-10-05T19:09:05.373Z,56.20
2018-10-05T19:11:35.044Z,56.20
2018-10-05T19:14:04.210Z,56.40
2018-10-05T19:16:33.460Z,56.40
2018-10-05T19:19:03.309Z,56.40
2018-10-05T19:21:34.321Z,56.60
2018-10-05T19:24:03.387Z,56.40
2018-10-05T19:26:32.645Z,56.50
2018-10-05T19:29:01.952Z,56.50
2018-10-05T19:31:31.253Z,56.50
2018-10-05T19:34:00.740Z,56.60
2018-10-05T19:36:30.121Z,56.50
2018-10-05T19:38:59.196Z,56.70
2018-10-05T19:41:28.492Z,56.60
2018-10-05T19:43:57.661Z,56.50
2018-10-05T19:46:26.677Z,56.40
2018-10-05T19:48:55.646Z,56.40
2018-10-05T19:51:25.038Z,56.50
2018-10-05T19:53:54.346Z,56.80
2018-10-05T19:56:23.651Z,56.70
2018-10-05T19:58:53.081Z,56.70
2018-10-05T20:01:23.121Z,56.90
2018-10-05T20:03:52.133Z,56.90
2018-10-05T20:06:21.523Z,57.30
2018-10-05T20:08:50.891Z,57.20
2018-10-05T20:11:20.023Z,57.00
2018-10-05T20:13:49.061Z,57.20
2018-10-05T20:16:18.297Z,57.30
2018-10-05T20:18:48.068Z,57.20
2018-10-05T20:21:17.342Z,57.50
2018-10-05T20:23:46.486Z,57.40
2018-10-05T20:26:16.119Z,57.30
2018-10-05T20:28:45.500Z,57.40
2018-10-05T20:31:14.829Z,57.40
2018-10-05T20:33:44.242Z,57.40
2018-10-05T20:36:13.622Z,57.60
2018-10-05T20:38:42.928Z,57.10
2018-10-05T20:41:12.249Z,57.30
2018-10-05T20:43:43.032Z,57.50
2018-10-05T20:46:12.277Z,57.60
2018-10-05T20:48:41.594Z,57.50
2018-10-05T20:51:10.709Z,57.60
2018-10-05T20:53:40.034Z,57.70
2018-10-05T20:56:09.261Z,57.80
2018-10-05T20:58:38.251Z,57.30
2018-10-05T21:01:07.474Z,57.70
2018-10-05T21:03:36.520Z,57.80
2018-10-05T21:06:06.169Z,57.50
2018-10-05T21:08:35.272Z,57.80
2018-10-05T21:11:04.393Z,57.80
2018-10-05T21:13:34.089Z,57.80
2018-10-05T21:16:03.023Z,57.90
2018-10-05T21:18:32.008Z,57.90
2018-10-05T21:21:01.062Z,58.00
2018-10-05T21:23:30.368Z,58.30
2018-10-05T21:25:59.405Z,58.10
2018-10-05T21:28:28.415Z,58.20
2018-10-05T21:30:57.634Z,58.30
2018-10-05T21:33:26.669Z,58.20
2018-10-05T21:35:56.029Z,58.30
2018-10-05T21:38:25.298Z,58.50
2018-10-05T21:40:54.596Z,58.20
2018-10-05T21:43:23.980Z,58.40
2018-10-05T21:45:53.454Z,58.30
2018-10-05T21:48:22.767Z,59.10
2018-10-05T21:50:52.377Z,58.50
2018-10-05T21:53:21.583Z,58.60
2018-10-05T21:55:50.610Z,58.60
2018-10-05T21:58:20.309Z,58.50
2018-10-05T22:00:49.189Z,58.40
2018-10-05T22:03:18.225Z,58.70
2018-10-05T22:05:47.316Z,58.40
2018-10-05T22:08:16.502Z,58.60
2018-10-05T22:10:46.110Z,58.90
2018-10-05T22:13:15.260Z,58.90
2018-10-05T22:15:44.446Z,59.00
2018-10-05T22:18:13.755Z,58.80
2018-10-05T22:20:43.057Z,59.00
2018-10-05T22:23:12.585Z,58.90
2018-10-05T22:25:42.636Z,59.10
2018-10-05T22:28:12.237Z,59.10
2018-10-05T22:30:41.173Z,59.20
2018-10-05T22:33:10.190Z,59.20
2018-10-05T22:35:39.258Z,59.30
2018-10-05T22:38:10.051Z,59.30
2018-10-05T22:40:39.054Z,59.30
2018-10-05T22:43:08.221Z,59.40
2018-10-05T22:45:37.249Z,59.60
2018-10-05T22:48:06.362Z,59.60
2018-10-05T22:50:35.885Z,59.60
2018-10-05T22:53:04.819Z,59.70
2018-10-05T22:55:34.434Z,59.70
2018-10-05T22:58:03.553Z,59.80
2018-10-05T23:00:32.401Z,59.90
2018-10-05T23:03:01.427Z,60.00
2018-10-05T23:05:30.767Z,60.10
2018-10-05T23:08:01.018Z,60.00
2018-10-05T23:10:30.462Z,60.10
2018-10-05T23:12:59.898Z,60.00
2018-10-05T23:15:29.015Z,60.20
2018-10-05T23:17:58.275Z,60.40
2018-10-05T23:20:27.535Z,60.40
2018-10-05T23:22:56.510Z,60.30
2018-10-05T23:25:25.745Z,60.60
2018-10-05T23:27:55.137Z,60.30
2018-10-05T23:30:24.089Z,60.60
2018-10-05T23:32:53.605Z,60.60
2018-10-05T23:35:22.762Z,60.60
2018-10-05T23:37:52.234Z,60.90
2018-10-05T23:40:21.358Z,60.90
2018-10-05T23:42:50.617Z,61.00
2018-10-05T23:45:19.608Z,61.10
2018-10-05T23:47:48.625Z,61.10
2018-10-05T23:50:17.617Z,61.10
2018-10-05T23:52:49.053Z,61.20
2018-10-05T23:55:18.265Z,61.30
2018-10-05T23:57:47.833Z,61.40
